Pagrindinis puslapis
METAR-TAF:

METAR-TAF

Oro uostai :

Stavangeris, Norvegija

platuma: 58-53N, ilguma: 005-38E, Aukštis: 0 m

Dabartinis oras

Ataskaita buvo paskelbta 31 minutes, ne 05:50 UTC
Vėjas 5 kt iš Rytų/Šiaurės Rytų
Temperatūra 18°C
Drėgmė 39%
Slėgis 1015 hPa
Matomumas 10 km arba daugiau
nėra debesų žemiau 1500 m ir nėra kamuolinių lietaus debesų

METAR: ENZV 220550Z 06005KT CAVOK 18/04 Q1015 NOSIG

Laikas: 08:21 (06:21 UTC)

Prognozė

Ataskaita buvo paskelbta 1 valandą ir 21 minutes, ne 05:00 UTC
Prognozė galioja nuo 22 metu 06 UTC su 23 metu 06 UTC
Vėjas 8 kt iš Rytų
Matomumas 10 km arba daugiau
nėra debesų žemiau 1500 m ir nėra kamuolinių lietaus debesų
Laikinai
nuo 22 metu 09 UTC su 22 metu 24 UTC
Vėjas 15 kt iš Rytų/Pietryčių su gūsio iki 25 kt

TAF: ENZV 220500Z 2206/2306 09008KT CAVOK TEMPO 2209/2224 12015G25KT

Orai ataskaitas ir orų prognozės (METAR, TAF).

turimą stotys yra geltonos ir raudonos taškus žemėlapyje.

Perkelti pele per norėdami pamatyti stoties vardą.

Tada spustelėkite, norėdami matyti oro stebėjimo ir prognozės.

Norėdami pakeisti žemėlapį: spustelėkite ant žalios mygtukų su juodo kryžiaus žemyn,; žalią mygtuką su brūkšneliu, jei norite nutolinti; arba žalių rodyklių gretimoms žemėlapius.


METAR-TAF: